Terminal Aerodrome Forecast
Issued by NWS

Home | Current Version | Previous Version | Text Only | Print | Product List | Glossary On
Versions: 1 2 3 4 5 6 7 8 9 10 11 12 13 14
137
FTUS41 KCAR 251729
TAFHUL
TAF
KHUL 251729Z 2518/2618 13009KT P6SM OVC120
     FM252000 14010KT 3SM -SN OVC030
     FM252100 15010KT 3/4SM -SN VV010
     FM260100 15009KT 3SM -SN BKN009 OVC020
     FM260500 16006KT 3SM -FZDZ OVC007
     FM261400 20004KT P6SM BKN015
     FM261600 26010G20KT P6SM BKN035=

USA.gov is the U.S. government's official web portal to all federal, state and local government web resources and services.